Husborne Crawley, United Kingdom
Current Conditions -  °F | °C
As of 12:50 PM on Tuesday 21 Oct 2014 (Local Time) from EGTC Reporting Station
Broken Clouds Broken Clouds  
Wind Chill: 54°   Ceiling: 3800
Heat Index: 54°   Visibility: 6mi
Dew Point: 43°   Wind: 25mph
Humidity: 67%   Direction: 280°W
Pressure: 29.65"   Gusts: 38mph
Location:  52.02°N, 0.61°W
Report Text: EGTC 211150Z 28022G33KT 9999 BKN038 12/06 Q1004
Loading
Personal Weather Stations






























Interactive Weather Map
Tropical Storm Tracking
New forecast layout! Learn more

10-Day Weather Forecast

Advertisements
Track Severe Weather on mobile